createdAt,value
2023-03-16T00:00:55.664Z,508.00
2023-03-16T00:04:55.701Z,505.00
2023-03-16T00:08:55.667Z,502.00
2023-03-16T00:12:55.680Z,508.00
2023-03-16T00:16:55.687Z,501.00
2023-03-16T00:20:55.722Z,503.00
2023-03-16T00:24:55.696Z,502.00
2023-03-16T00:28:55.721Z,510.00
2023-03-16T00:32:55.813Z,504.00
2023-03-16T00:36:55.739Z,509.00
2023-03-16T00:40:55.861Z,507.00
2023-03-16T00:44:55.769Z,506.00
2023-03-16T00:48:55.746Z,504.00
2023-03-16T00:52:55.818Z,509.00
2023-03-16T00:56:55.768Z,508.00
2023-03-16T01:00:55.925Z,507.00
2023-03-16T01:04:55.828Z,504.00
2023-03-16T01:08:55.877Z,507.00
2023-03-16T01:12:55.891Z,509.00
2023-03-16T01:16:55.935Z,508.00
2023-03-16T01:20:55.943Z,507.00
2023-03-16T01:24:55.927Z,500.00
2023-03-16T01:28:55.955Z,508.00
2023-03-16T01:32:55.989Z,505.00
2023-03-16T01:36:56.015Z,503.00
2023-03-16T01:40:56.055Z,502.00
2023-03-16T01:44:56.015Z,506.00
2023-03-16T01:48:56.086Z,507.00
2023-03-16T01:52:56.124Z,500.00
2023-03-16T01:56:56.156Z,504.00
2023-03-16T02:00:56.199Z,505.00
2023-03-16T02:04:56.229Z,509.00
2023-03-16T02:08:56.248Z,511.00
2023-03-16T02:12:56.316Z,507.00
2023-03-16T02:16:56.342Z,506.00
2023-03-16T02:20:56.381Z,510.00
2023-03-16T02:24:56.441Z,505.00
2023-03-16T02:28:56.472Z,502.00
2023-03-16T02:32:56.551Z,507.00
2023-03-16T02:36:56.593Z,505.00
2023-03-16T02:40:57.059Z,500.00
2023-03-16T02:44:56.690Z,508.00
2023-03-16T02:48:56.670Z,510.00
2023-03-16T02:52:56.707Z,507.00
2023-03-16T02:56:56.741Z,506.00
2023-03-16T03:00:56.804Z,511.00
2023-03-16T03:04:56.829Z,503.00
2023-03-16T03:08:56.891Z,502.00
2023-03-16T03:12:56.932Z,510.00
2023-03-16T03:16:56.982Z,506.00
2023-03-16T03:20:57.043Z,507.00
2023-03-16T03:24:57.127Z,509.00
2023-03-16T03:28:57.147Z,506.00
2023-03-16T03:32:57.210Z,508.00
2023-03-16T03:36:57.246Z,506.00
2023-03-16T03:40:57.342Z,509.00
2023-03-16T03:44:57.388Z,502.00
2023-03-16T03:48:57.396Z,504.00
2023-03-16T03:52:57.477Z,509.00
2023-03-16T03:56:57.559Z,506.00
2023-03-16T04:00:57.610Z,506.00
2023-03-16T04:04:57.645Z,505.00
2023-03-16T04:08:57.697Z,506.00
2023-03-16T04:12:57.789Z,505.00
2023-03-16T04:16:57.842Z,506.00
2023-03-16T04:20:57.879Z,504.00
2023-03-16T04:24:57.985Z,507.00
2023-03-16T04:28:58.015Z,506.00
2023-03-16T04:32:58.186Z,502.00
2023-03-16T04:36:58.199Z,500.00
2023-03-16T04:40:58.287Z,509.00
2023-03-16T04:44:58.310Z,505.00
2023-03-16T04:48:58.491Z,507.00
2023-03-16T04:52:58.430Z,507.00
2023-03-16T04:56:58.502Z,507.00
2023-03-16T05:00:58.631Z,508.00
2023-03-16T05:04:58.684Z,509.00
2023-03-16T05:08:58.745Z,503.00
2023-03-16T05:12:58.823Z,502.00
2023-03-16T05:16:58.956Z,512.00
2023-03-16T05:20:58.981Z,506.00
2023-03-16T05:24:59.024Z,509.00
2023-03-16T05:28:59.225Z,507.00
2023-03-16T05:32:59.282Z,507.00
2023-03-16T05:36:59.298Z,509.00
2023-03-16T05:40:59.422Z,507.00
2023-03-16T05:44:59.445Z,506.00
2023-03-16T05:48:59.547Z,508.00
2023-03-16T05:52:59.726Z,507.00
2023-03-16T05:56:59.730Z,508.00
2023-03-16T06:00:59.840Z,507.00
2023-03-16T06:04:59.918Z,506.00
2023-03-16T06:09:00.030Z,509.00
2023-03-16T06:13:00.107Z,504.00
2023-03-16T06:17:00.176Z,504.00
2023-03-16T06:21:00.439Z,511.00
2023-03-16T06:25:00.342Z,508.00
2023-03-16T06:29:00.428Z,510.00
2023-03-16T06:33:00.560Z,505.00
2023-03-16T06:37:00.553Z,505.00
2023-03-16T06:41:00.581Z,505.00
2023-03-16T06:45:00.665Z,510.00
2023-03-16T06:49:00.702Z,505.00
2023-03-16T06:53:00.735Z,504.00
2023-03-16T06:57:00.810Z,509.00
2023-03-16T07:01:00.875Z,504.00
2023-03-16T07:05:00.859Z,501.00
2023-03-16T07:09:00.884Z,501.00
2023-03-16T07:13:00.861Z,502.00
2023-03-16T07:17:00.944Z,505.00
2023-03-16T07:21:07.968Z,510.00
2023-03-16T07:25:00.857Z,509.00
2023-03-16T07:29:00.789Z,508.00
2023-03-16T07:33:00.794Z,511.00
2023-03-16T07:37:00.695Z,501.00
2023-03-16T07:41:00.664Z,509.00
2023-03-16T07:45:00.690Z,506.00
2023-03-16T07:49:00.627Z,505.00
2023-03-16T07:53:00.610Z,508.00
2023-03-16T07:57:00.529Z,510.00
2023-03-16T08:01:00.501Z,509.00
2023-03-16T08:05:00.638Z,509.00
2023-03-16T08:09:00.555Z,514.00
2023-03-16T08:13:00.536Z,515.00
2023-03-16T08:17:00.514Z,512.00
2023-03-16T08:21:00.450Z,513.00
2023-03-16T08:25:00.415Z,515.00
2023-03-16T08:29:00.421Z,509.00
2023-03-16T08:33:00.361Z,514.00
2023-03-16T08:37:00.274Z,510.00
2023-03-16T08:41:00.321Z,513.00
2023-03-16T08:45:00.216Z,515.00
2023-03-16T08:49:00.235Z,517.00
2023-03-16T08:53:00.356Z,519.00
2023-03-16T08:57:00.489Z,517.00
2023-03-16T09:01:00.635Z,515.00
2023-03-16T09:05:00.780Z,516.00
2023-03-16T09:09:00.841Z,515.00
2023-03-16T09:13:01.010Z,519.00
2023-03-16T09:17:01.074Z,518.00
2023-03-16T09:21:01.154Z,521.00
2023-03-16T09:25:01.219Z,521.00
2023-03-16T09:29:01.320Z,514.00
2023-03-16T09:33:01.364Z,513.00
2023-03-16T09:37:01.380Z,516.00
2023-03-16T09:41:01.443Z,517.00
2023-03-16T09:45:01.493Z,519.00
2023-03-16T09:49:01.575Z,515.00
2023-03-16T09:53:01.604Z,518.00
2023-03-16T09:57:01.678Z,517.00
2023-03-16T10:01:01.720Z,519.00
2023-03-16T10:05:01.733Z,516.00
2023-03-16T10:09:01.722Z,516.00
2023-03-16T10:13:01.775Z,519.00
2023-03-16T10:17:01.768Z,517.00
2023-03-16T10:21:01.786Z,516.00
2023-03-16T10:25:01.794Z,518.00
2023-03-16T10:29:01.818Z,517.00
2023-03-16T10:33:01.852Z,510.00
2023-03-16T10:37:01.737Z,515.00
2023-03-16T10:41:01.717Z,515.00
2023-03-16T10:45:03.115Z,509.00
2023-03-16T10:49:01.789Z,513.00
2023-03-16T10:53:01.753Z,511.00
2023-03-16T10:57:01.700Z,511.00
2023-03-16T11:01:01.885Z,515.00
2023-03-16T11:05:01.699Z,516.00
2023-03-16T11:09:01.645Z,515.00
2023-03-16T11:13:02.544Z,516.00
2023-03-16T11:17:01.934Z,519.00
2023-03-16T11:21:01.829Z,520.00
2023-03-16T11:25:01.702Z,513.00
2023-03-16T11:29:01.841Z,515.00
2023-03-16T11:33:01.982Z,511.00
2023-03-16T11:37:01.831Z,509.00
2023-03-16T11:41:01.873Z,512.00
2023-03-16T11:45:01.815Z,513.00
2023-03-16T11:49:01.780Z,504.00
2023-03-16T11:53:02.344Z,505.00
2023-03-16T11:57:01.815Z,510.00
2023-03-16T12:01:01.690Z,509.00
2023-03-16T12:05:01.734Z,504.00
2023-03-16T12:09:01.646Z,509.00
2023-03-16T12:13:01.832Z,507.00
2023-03-16T12:17:02.872Z,506.00
2023-03-16T12:21:01.705Z,507.00
2023-03-16T12:25:01.709Z,509.00
2023-03-16T12:29:01.727Z,510.00
2023-03-16T12:33:01.709Z,512.00
2023-03-16T12:37:01.832Z,509.00
2023-03-16T12:41:01.755Z,509.00
2023-03-16T12:45:01.895Z,508.00
2023-03-16T12:49:01.816Z,509.00
2023-03-16T12:53:02.342Z,509.00
2023-03-16T12:57:02.330Z,509.00
2023-03-16T13:01:02.490Z,504.00
2023-03-16T13:05:02.068Z,506.00
2023-03-16T13:09:02.367Z,505.00
2023-03-16T13:13:02.349Z,504.00
2023-03-16T13:17:02.408Z,508.00
2023-03-16T13:21:02.413Z,503.00
2023-03-16T13:25:02.882Z,500.00
2023-03-16T13:29:02.878Z,505.00
2023-03-16T13:33:02.737Z,507.00
2023-03-16T13:37:02.865Z,503.00
2023-03-16T13:41:02.958Z,504.00
2023-03-16T13:45:03.383Z,507.00
2023-03-16T13:49:03.383Z,506.00
2023-03-16T13:53:04.513Z,503.00
2023-03-16T13:57:03.539Z,506.00
2023-03-16T14:01:10.847Z,507.00
2023-03-16T14:05:03.902Z,507.00
2023-03-16T14:09:03.899Z,507.00
2023-03-16T14:13:03.617Z,504.00
2023-03-16T14:17:03.942Z,502.00
2023-03-16T14:21:03.912Z,504.00
2023-03-16T14:25:03.626Z,506.00
2023-03-16T14:29:03.917Z,506.00
2023-03-16T14:33:03.838Z,508.00
2023-03-16T14:37:03.916Z,508.00
2023-03-16T14:41:03.913Z,513.00
2023-03-16T14:45:03.939Z,509.00
2023-03-16T14:49:03.978Z,503.00
2023-03-16T14:53:03.627Z,511.00
2023-03-16T14:57:03.969Z,506.00
2023-03-16T15:01:03.599Z,508.00
2023-03-16T15:05:03.953Z,507.00
2023-03-16T15:09:03.691Z,508.00
2023-03-16T15:13:03.941Z,511.00
2023-03-16T15:17:03.953Z,511.00
2023-03-16T15:21:03.594Z,510.00
2023-03-16T15:25:03.954Z,514.00
2023-03-16T15:29:03.531Z,512.00
2023-03-16T15:33:03.575Z,512.00
2023-03-16T15:37:03.546Z,511.00
2023-03-16T15:41:03.386Z,510.00
2023-03-16T15:45:03.483Z,507.00
2023-03-16T15:49:03.310Z,505.00
2023-03-16T15:53:03.493Z,508.00
2023-03-16T15:57:03.482Z,509.00
2023-03-16T16:01:03.530Z,508.00
2023-03-16T16:05:03.217Z,507.00
2023-03-16T16:09:03.182Z,502.00
2023-03-16T16:13:03.483Z,503.00
2023-03-16T16:17:03.482Z,506.00
2023-03-16T16:21:03.268Z,500.00
2023-03-16T16:25:03.169Z,518.00
2023-03-16T16:29:03.485Z,507.00
2023-03-16T16:33:03.543Z,509.00
2023-03-16T16:37:03.478Z,508.00
2023-03-16T16:41:03.075Z,507.00
2023-03-16T16:45:03.046Z,505.00
2023-03-16T16:49:03.474Z,503.00
2023-03-16T16:53:03.499Z,511.00
2023-03-16T16:57:03.003Z,507.00
2023-03-16T17:01:03.029Z,508.00
2023-03-16T17:05:02.977Z,512.00
2023-03-16T17:09:03.493Z,507.00
2023-03-16T17:13:03.516Z,503.00
2023-03-16T17:17:03.226Z,505.00
2023-03-16T17:21:03.538Z,505.00
2023-03-16T17:25:03.100Z,511.00
2023-03-16T17:29:03.538Z,512.00
2023-03-16T17:33:03.523Z,509.00
2023-03-16T17:37:03.554Z,511.00
2023-03-16T17:41:03.242Z,506.00
2023-03-16T17:45:03.542Z,512.00
2023-03-16T17:49:03.343Z,512.00
2023-03-16T17:53:03.521Z,512.00
2023-03-16T17:57:03.543Z,515.00
2023-03-16T18:01:03.466Z,510.00
2023-03-16T18:05:03.513Z,514.00
2023-03-16T18:09:03.513Z,514.00
2023-03-16T18:13:03.997Z,512.00
2023-03-16T18:17:03.638Z,511.00
2023-03-16T18:21:03.607Z,512.00
2023-03-16T18:25:04.037Z,506.00
2023-03-16T18:29:03.749Z,506.00
2023-03-16T18:33:04.187Z,509.00
2023-03-16T18:37:03.830Z,505.00
2023-03-16T18:41:03.893Z,506.00
2023-03-16T18:45:04.033Z,512.00
2023-03-16T18:49:04.073Z,509.00
2023-03-16T18:53:04.518Z,507.00
2023-03-16T18:57:04.254Z,513.00
2023-03-16T19:01:04.328Z,507.00
2023-03-16T19:05:04.605Z,508.00
2023-03-16T19:09:04.413Z,502.00
2023-03-16T19:13:04.569Z,506.00
2023-03-16T19:17:04.558Z,506.00
2023-03-16T19:21:05.082Z,504.00
2023-03-16T19:25:04.714Z,507.00
2023-03-16T19:29:05.059Z,590.00
2023-03-16T19:33:05.130Z,882.00
2023-03-16T19:37:04.924Z,696.00
2023-03-16T19:41:05.071Z,1613.00
2023-03-16T19:45:04.882Z,1534.00
2023-03-16T19:49:05.090Z,1546.00
2023-03-16T19:53:05.090Z,1394.00
2023-03-16T19:57:04.758Z,1379.00
2023-03-16T20:01:04.797Z,1341.00
2023-03-16T20:05:04.708Z,1237.00
2023-03-16T20:09:05.070Z,1082.00
2023-03-16T20:13:04.591Z,1038.00
2023-03-16T20:17:04.717Z,1001.00
2023-03-16T20:21:04.621Z,975.00
2023-03-16T20:25:04.527Z,922.00
2023-03-16T20:29:04.573Z,895.00
2023-03-16T20:33:04.485Z,912.00
2023-03-16T20:37:04.630Z,885.00
2023-03-16T20:41:04.590Z,876.00
2023-03-16T20:45:04.320Z,856.00
2023-03-16T20:49:04.627Z,785.00
2023-03-16T20:53:04.272Z,734.00
2023-03-16T20:57:04.604Z,683.00
2023-03-16T21:01:04.630Z,670.00
2023-03-16T21:05:04.173Z,660.00
2023-03-16T21:09:04.152Z,654.00
2023-03-16T21:13:04.257Z,646.00
2023-03-16T21:17:04.404Z,642.00
2023-03-16T21:21:04.605Z,636.00
2023-03-16T21:25:04.744Z,628.00
2023-03-16T21:29:04.925Z,623.00
2023-03-16T21:33:05.222Z,614.00
2023-03-16T21:37:05.353Z,608.00
2023-03-16T21:41:05.590Z,605.00
2023-03-16T21:45:05.603Z,600.00
2023-03-16T21:49:05.488Z,598.00
2023-03-16T21:53:05.465Z,591.00
2023-03-16T21:57:05.421Z,593.00
2023-03-16T22:01:05.423Z,584.00
2023-03-16T22:05:05.382Z,579.00
2023-03-16T22:09:05.308Z,580.00
2023-03-16T22:13:05.292Z,577.00
2023-03-16T22:17:05.218Z,571.00
2023-03-16T22:21:05.304Z,565.00
2023-03-16T22:25:05.358Z,563.00
2023-03-16T22:29:05.554Z,562.00
2023-03-16T22:33:05.739Z,561.00
2023-03-16T22:37:05.864Z,556.00
2023-03-16T22:41:06.093Z,554.00
2023-03-16T22:45:06.177Z,553.00
2023-03-16T22:49:06.250Z,547.00
2023-03-16T22:53:06.209Z,541.00
2023-03-16T22:57:06.246Z,544.00
2023-03-16T23:01:06.283Z,539.00
2023-03-16T23:05:06.352Z,535.00
2023-03-16T23:09:06.302Z,534.00
2023-03-16T23:13:06.321Z,532.00
2023-03-16T23:17:06.303Z,530.00
2023-03-16T23:21:06.313Z,528.00
2023-03-16T23:25:06.310Z,531.00
2023-03-16T23:29:06.301Z,529.00
2023-03-16T23:33:06.288Z,519.00
2023-03-16T23:37:06.223Z,524.00
2023-03-16T23:41:06.210Z,522.00
2023-03-16T23:45:06.684Z,518.00
2023-03-16T23:49:06.161Z,516.00
2023-03-16T23:53:06.167Z,516.00
2023-03-16T23:57:06.159Z,510.00
